createdAt,value
2022-09-17T00:01:30.822Z,51.81
2022-09-17T00:03:57.142Z,51.81
2022-09-17T00:06:23.511Z,51.82
2022-09-17T00:08:49.864Z,51.77
2022-09-17T00:11:16.254Z,51.80
2022-09-17T00:13:42.614Z,51.79
2022-09-17T00:16:09.000Z,51.74
2022-09-17T00:18:35.330Z,51.76
2022-09-17T00:21:01.690Z,51.75
2022-09-17T00:23:28.046Z,51.82
2022-09-17T00:25:54.410Z,51.77
2022-09-17T00:28:20.761Z,51.82
2022-09-17T00:30:47.123Z,51.79
2022-09-17T00:33:13.486Z,51.82
2022-09-17T00:35:39.872Z,51.81
2022-09-17T00:38:06.229Z,51.77
2022-09-17T00:40:32.648Z,51.79
2022-09-17T00:42:58.922Z,51.75
2022-09-17T00:45:25.268Z,51.72
2022-09-17T00:47:51.612Z,51.78
2022-09-17T00:50:17.949Z,51.73
2022-09-17T00:52:44.286Z,51.75
2022-09-17T00:55:11.866Z,51.70
2022-09-17T00:57:36.974Z,51.66
2022-09-17T01:00:03.323Z,51.67
2022-09-17T01:02:29.746Z,51.71
2022-09-17T01:04:56.043Z,51.69
2022-09-17T01:07:22.417Z,51.65
2022-09-17T01:09:48.790Z,51.65
2022-09-17T01:12:15.129Z,51.65
2022-09-17T01:14:41.471Z,51.71
2022-09-17T01:17:07.799Z,51.66
2022-09-17T01:19:34.143Z,51.66
2022-09-17T01:22:00.478Z,51.66
2022-09-17T01:24:26.821Z,51.67
2022-09-17T01:26:53.186Z,51.64
2022-09-17T01:29:19.530Z,51.66
2022-09-17T01:31:45.891Z,51.62
2022-09-17T01:34:12.271Z,51.61
2022-09-17T01:36:38.611Z,51.60
2022-09-17T01:39:04.956Z,51.66
2022-09-17T01:41:31.293Z,51.62
2022-09-17T01:43:57.631Z,51.56
2022-09-17T01:46:23.982Z,51.56
2022-09-17T01:48:50.306Z,51.56
2022-09-17T01:51:16.639Z,51.57
2022-09-17T01:53:42.972Z,51.62
2022-09-17T01:56:09.344Z,51.56
2022-09-17T01:58:35.684Z,51.65
2022-09-17T02:01:02.096Z,51.61
2022-09-17T02:03:28.395Z,51.58
2022-09-17T02:05:54.738Z,51.58
2022-09-17T02:08:21.075Z,51.57
2022-09-17T02:10:47.417Z,51.55
2022-09-17T02:13:13.758Z,51.49
2022-09-17T02:15:40.094Z,51.51
2022-09-17T02:18:06.430Z,51.56
2022-09-17T02:20:32.775Z,51.51
2022-09-17T02:22:59.108Z,51.50
2022-09-17T02:25:25.482Z,51.49
2022-09-17T02:27:51.817Z,51.56
2022-09-17T02:30:18.158Z,51.51
2022-09-17T02:32:44.498Z,51.57
2022-09-17T02:35:10.836Z,51.50
2022-09-17T02:37:37.173Z,51.56
2022-09-17T02:40:03.588Z,51.53
2022-09-17T02:42:29.855Z,51.54
2022-09-17T02:44:56.192Z,51.55
2022-09-17T02:47:22.528Z,51.48
2022-09-17T02:49:48.870Z,51.42
2022-09-17T02:52:15.203Z,51.43
2022-09-17T02:54:41.545Z,51.38
2022-09-17T02:57:07.876Z,51.41
2022-09-17T02:59:34.220Z,51.41
2022-09-17T03:02:00.629Z,51.44
2022-09-17T03:04:26.946Z,51.42
2022-09-17T03:06:53.269Z,51.39
2022-09-17T03:09:19.613Z,51.42
2022-09-17T03:11:45.947Z,51.41
2022-09-17T03:16:54.552Z,51.42
2022-09-17T03:19:20.890Z,51.37
2022-09-17T03:21:47.229Z,51.39
2022-09-17T03:24:13.562Z,51.36
2022-09-17T03:26:39.916Z,51.37
2022-09-17T03:29:06.239Z,51.37
2022-09-17T03:31:32.677Z,51.37
2022-09-17T03:33:58.913Z,51.36
2022-09-17T03:36:25.258Z,51.37
2022-09-17T03:38:51.625Z,51.34
2022-09-17T03:41:17.978Z,51.36
2022-09-17T03:43:44.347Z,51.33
2022-09-17T03:46:10.703Z,51.32
2022-09-17T03:48:36.997Z,51.33
2022-09-17T03:51:03.330Z,51.35
2022-09-17T03:53:29.665Z,51.35
2022-09-17T03:55:56.005Z,51.32
2022-09-17T03:58:22.342Z,51.31
2022-09-17T04:00:48.690Z,51.34
2022-09-17T04:03:15.046Z,51.32
2022-09-17T04:05:41.391Z,51.26
2022-09-17T04:08:07.728Z,51.28
2022-09-17T04:10:34.072Z,51.32
2022-09-17T04:13:00.402Z,51.31
2022-09-17T04:15:26.749Z,51.30
2022-09-17T04:17:53.080Z,51.28
2022-09-17T04:20:19.480Z,51.30
2022-09-17T04:22:45.811Z,51.30
2022-09-17T04:25:12.155Z,51.29
2022-09-17T04:27:38.489Z,51.24
2022-09-17T04:30:04.826Z,51.29
2022-09-17T04:32:31.165Z,51.24
2022-09-17T04:34:57.501Z,51.24
2022-09-17T04:37:23.832Z,51.21
2022-09-17T04:39:50.221Z,51.25
2022-09-17T04:42:16.507Z,51.23
2022-09-17T04:44:42.856Z,51.20
2022-09-17T04:47:09.190Z,51.28
2022-09-17T04:49:35.561Z,51.23
2022-09-17T04:52:01.893Z,51.22
2022-09-17T04:54:28.236Z,51.20
2022-09-17T04:56:54.570Z,51.23
2022-09-17T04:59:20.911Z,51.26
2022-09-17T05:01:47.372Z,51.22
2022-09-17T05:04:13.623Z,51.25
2022-09-17T05:06:39.963Z,51.22
2022-09-17T05:09:06.303Z,51.25
2022-09-17T05:11:32.648Z,51.32
2022-09-17T05:13:58.986Z,51.54
2022-09-17T05:16:25.366Z,51.57
2022-09-17T05:18:51.666Z,51.66
2022-09-17T05:21:17.994Z,51.91
2022-09-17T05:23:44.333Z,52.02
2022-09-17T05:26:10.675Z,51.95
2022-09-17T05:28:37.018Z,52.10
2022-09-17T05:31:03.400Z,52.32
2022-09-17T05:33:29.698Z,52.47
2022-09-17T05:35:56.024Z,52.54
2022-09-17T05:38:24.576Z,52.58
2022-09-17T05:40:50.917Z,52.65
2022-09-17T05:43:17.286Z,52.68
2022-09-17T05:45:43.620Z,52.82
2022-09-17T06:54:14.238Z,54.18
2022-09-17T06:56:40.603Z,54.84
2022-09-17T06:59:06.945Z,54.61
2022-09-17T07:01:33.365Z,54.38
2022-09-17T07:03:59.639Z,54.11
2022-09-17T07:06:25.973Z,53.98
2022-09-17T07:08:52.311Z,53.64
2022-09-17T07:11:18.677Z,53.64
2022-09-17T07:13:45.019Z,53.57
2022-09-17T07:16:11.430Z,53.50
2022-09-17T07:18:37.695Z,53.50
2022-09-17T07:21:04.065Z,52.82
2022-09-17T07:23:30.402Z,53.06
2022-09-17T07:25:56.741Z,53.04
2022-09-17T07:28:23.083Z,53.04
2022-09-17T07:30:49.450Z,53.09
2022-09-17T07:33:15.761Z,53.06
2022-09-17T07:35:42.138Z,53.05
2022-09-17T07:38:08.592Z,53.15
2022-09-17T07:40:34.958Z,53.35
2022-09-17T07:43:01.259Z,53.36
2022-09-17T07:45:27.595Z,53.75
2022-09-17T07:47:53.935Z,53.90
2022-09-17T07:50:20.306Z,53.92
2022-09-17T07:52:46.636Z,54.08
2022-09-17T07:55:13.004Z,54.14
2022-09-17T07:57:39.340Z,54.16
2022-09-17T08:00:05.670Z,54.17
2022-09-17T08:02:32.128Z,54.18
2022-09-17T08:04:58.345Z,54.17
2022-09-17T08:07:25.732Z,54.18
2022-09-17T08:09:52.067Z,54.13
2022-09-17T08:12:18.411Z,54.14
2022-09-17T08:14:44.740Z,54.13
2022-09-17T08:17:11.080Z,53.88
2022-09-17T08:19:37.407Z,53.93
2022-09-17T08:22:03.754Z,54.19
2022-09-17T08:24:30.083Z,54.09
2022-09-17T08:26:56.452Z,54.00
2022-09-17T08:29:22.827Z,53.97
2022-09-17T08:31:49.217Z,54.10
2022-09-17T08:34:15.514Z,53.93
2022-09-17T08:36:41.857Z,53.88
2022-09-17T08:39:08.195Z,53.82
2022-09-17T08:41:34.581Z,53.79
2022-09-17T08:44:00.915Z,53.62
2022-09-17T08:46:27.266Z,53.63
2022-09-17T08:48:53.582Z,53.55
2022-09-17T08:51:19.923Z,53.43
2022-09-17T08:53:46.357Z,53.41
2022-09-17T09:14:54.927Z,53.30
2022-09-17T09:17:21.326Z,53.50
2022-09-17T09:19:47.671Z,53.37
2022-09-17T09:22:14.004Z,53.37
2022-09-17T09:24:40.341Z,53.36
2022-09-17T09:27:06.699Z,53.40
2022-09-17T09:29:33.040Z,53.50
2022-09-17T09:31:59.379Z,53.50
2022-09-17T09:34:25.724Z,53.56
2022-09-17T09:36:52.055Z,53.66
2022-09-17T09:39:18.401Z,53.72
2022-09-17T09:41:44.732Z,53.88
2022-09-17T09:44:11.086Z,53.94
2022-09-17T09:46:37.478Z,54.04
2022-09-17T09:49:03.780Z,54.12
2022-09-17T09:51:30.113Z,54.31
2022-09-17T09:53:56.451Z,54.33
2022-09-17T09:56:22.785Z,54.55
2022-09-17T09:58:49.135Z,54.63
2022-09-17T10:01:15.535Z,54.82
2022-09-17T10:03:41.813Z,54.86
2022-09-17T10:06:08.163Z,54.97
2022-09-17T10:08:34.500Z,55.21
2022-09-17T10:11:00.845Z,55.40
2022-09-17T10:13:27.181Z,55.55
2022-09-17T10:15:53.575Z,55.68
2022-09-17T10:18:19.866Z,55.82
2022-09-17T10:20:46.204Z,55.91
2022-09-17T10:23:12.547Z,55.87
2022-09-17T10:25:38.887Z,56.10
2022-09-17T10:28:05.224Z,56.09
2022-09-17T10:30:31.564Z,56.24
2022-09-17T10:32:57.906Z,56.39
2022-09-17T10:35:24.236Z,56.39
2022-09-17T10:37:50.581Z,56.36
2022-09-17T10:40:16.988Z,56.36
2022-09-17T10:42:43.298Z,56.64
2022-09-17T10:45:09.633Z,56.65
2022-09-17T10:47:35.977Z,56.68
2022-09-17T10:50:04.385Z,56.66
2022-09-17T10:52:28.663Z,56.88
2022-09-17T10:54:55.026Z,56.80
2022-09-17T10:57:21.372Z,56.82
2022-09-17T10:59:47.703Z,56.97
2022-09-17T11:02:14.249Z,56.90
2022-09-17T11:04:40.378Z,56.89
2022-09-17T11:07:06.724Z,56.90
2022-09-17T11:09:33.059Z,56.87
2022-09-17T11:11:59.407Z,56.90
2022-09-17T11:14:25.737Z,56.85
2022-09-17T11:16:52.070Z,56.84
2022-09-17T11:19:18.411Z,56.74
2022-09-17T11:21:44.750Z,56.81
2022-09-17T11:24:11.150Z,56.76
2022-09-17T11:26:37.488Z,56.53
2022-09-17T11:29:03.824Z,56.51
2022-09-17T11:31:30.210Z,56.43
2022-09-17T11:33:56.504Z,56.40
2022-09-17T11:36:22.843Z,56.46
2022-09-17T11:38:49.221Z,56.38
2022-09-17T11:41:15.526Z,56.27
2022-09-17T11:43:41.865Z,56.17
2022-09-17T11:46:08.253Z,56.15
2022-09-17T11:48:34.547Z,56.17
2022-09-17T11:51:00.888Z,56.10
2022-09-17T11:53:27.222Z,56.24
2022-09-17T11:55:53.597Z,56.25
2022-09-17T11:58:19.925Z,56.29
2022-09-17T12:00:46.265Z,56.39
2022-09-17T12:03:12.657Z,56.40
2022-09-17T12:05:38.941Z,56.54
2022-09-17T12:08:05.278Z,56.55
2022-09-17T12:10:31.621Z,56.61
2022-09-17T12:12:57.953Z,56.63
2022-09-17T12:15:24.300Z,56.50
2022-09-17T12:17:50.689Z,56.68
2022-09-17T12:20:17.025Z,56.69
2022-09-17T12:22:43.369Z,56.83
2022-09-17T12:25:09.709Z,56.86
2022-09-17T12:27:36.042Z,56.88
2022-09-17T12:30:02.396Z,56.90
2022-09-17T12:32:28.756Z,56.92
2022-09-17T12:34:55.094Z,56.99
2022-09-17T12:37:21.424Z,57.10
2022-09-17T12:39:47.767Z,57.20
2022-09-17T12:42:14.105Z,57.21
2022-09-17T12:44:40.448Z,57.28
2022-09-17T12:47:06.791Z,57.35
2022-09-17T12:49:33.160Z,57.40
2022-09-17T12:51:59.490Z,57.41
2022-09-17T12:54:25.833Z,57.39
2022-09-17T12:56:52.168Z,57.45
2022-09-17T12:59:18.516Z,57.63
2022-09-17T13:01:44.947Z,57.74
2022-09-17T13:04:11.225Z,57.72
2022-09-17T13:06:37.592Z,57.81
2022-09-17T13:09:03.926Z,57.85
2022-09-17T13:11:30.260Z,57.82
2022-09-17T13:13:56.608Z,57.79
2022-09-17T13:16:22.982Z,57.79
2022-09-17T13:19:05.712Z,57.94
2022-09-17T13:21:15.630Z,58.06
2022-09-17T13:23:41.975Z,58.09
2022-09-17T13:26:08.340Z,58.20
2022-09-17T13:28:34.724Z,58.19
2022-09-17T13:31:01.107Z,58.26
2022-09-17T13:33:27.401Z,58.34
2022-09-17T13:35:53.748Z,58.25
2022-09-17T13:38:23.089Z,58.26
2022-09-17T13:40:46.420Z,58.36
2022-09-17T13:43:12.759Z,58.27
2022-09-17T13:45:39.093Z,58.25
2022-09-17T13:48:05.429Z,58.19
2022-09-17T13:50:31.766Z,58.23
2022-09-17T13:52:58.108Z,58.24
2022-09-17T13:55:24.448Z,58.25
2022-09-17T13:57:50.821Z,58.34
2022-09-17T14:00:17.152Z,58.23
2022-09-17T14:02:43.541Z,58.23
2022-09-17T14:05:09.847Z,58.23
2022-09-17T14:07:36.230Z,58.19
2022-09-17T14:10:02.564Z,57.75
2022-09-17T14:12:28.901Z,57.45
2022-09-17T14:14:55.236Z,57.30
2022-09-17T14:17:21.582Z,57.19
2022-09-17T14:19:51.284Z,57.15
2022-09-17T14:22:14.265Z,57.10
2022-09-17T14:24:40.600Z,57.06
2022-09-17T14:27:06.944Z,57.00
2022-09-17T14:29:33.314Z,57.02
2022-09-17T14:31:59.659Z,56.95
2022-09-17T14:34:25.987Z,56.96
2022-09-17T14:36:52.337Z,56.92
2022-09-17T14:39:18.667Z,56.89
2022-09-17T14:41:45.014Z,56.90
2022-09-17T14:44:11.347Z,56.88
2022-09-17T14:46:37.767Z,56.84
2022-09-17T14:49:04.059Z,56.88
2022-09-17T14:51:30.401Z,56.88
2022-09-17T14:53:56.729Z,56.92
2022-09-17T14:56:23.071Z,56.85
2022-09-17T14:58:49.406Z,56.82
2022-09-17T15:01:15.792Z,56.73
2022-09-17T15:03:42.086Z,56.74
2022-09-17T15:06:08.427Z,56.75
2022-09-17T15:08:34.762Z,56.80
2022-09-17T15:11:01.103Z,56.69
2022-09-17T15:13:27.446Z,56.69
2022-09-17T15:15:53.821Z,56.67
2022-09-17T15:18:20.185Z,56.67
2022-09-17T15:20:46.530Z,56.66
2022-09-17T15:23:12.869Z,56.69
2022-09-17T15:25:39.204Z,56.62
2022-09-17T15:28:05.543Z,56.55
2022-09-17T15:30:31.889Z,56.51
2022-09-17T15:32:58.228Z,56.45
2022-09-17T15:35:24.563Z,56.41
2022-09-17T15:38:18.600Z,56.30
2022-09-17T15:40:17.338Z,56.27
2022-09-17T15:42:43.576Z,56.17
2022-09-17T15:45:09.912Z,56.14
2022-09-17T15:47:36.278Z,56.09
2022-09-17T15:50:02.715Z,56.11
2022-09-17T15:52:29.001Z,56.04
2022-09-17T15:54:55.348Z,55.98
2022-09-17T15:57:21.682Z,56.11
2022-09-17T15:59:48.021Z,56.11
2022-09-17T16:02:14.437Z,56.06
2022-09-17T16:04:40.695Z,56.03
2022-09-17T16:07:07.033Z,56.05
2022-09-17T16:09:33.372Z,56.07
2022-09-17T16:11:59.717Z,56.01
2022-09-17T16:14:26.057Z,56.09
2022-09-17T16:16:52.393Z,56.06
2022-09-17T16:19:18.729Z,56.03
2022-09-17T16:21:45.073Z,55.96
2022-09-17T16:24:11.510Z,55.98
2022-09-17T16:26:37.840Z,55.89
2022-09-17T16:29:04.188Z,55.89
2022-09-17T16:31:30.622Z,55.91
2022-09-17T16:33:56.902Z,55.88
2022-09-17T16:36:23.232Z,55.92
2022-09-17T16:38:49.578Z,55.95
2022-09-17T16:41:15.923Z,55.91
2022-09-17T16:43:42.266Z,55.86
2022-09-17T16:46:08.670Z,55.86
2022-09-17T16:48:34.941Z,55.88
2022-09-17T16:51:01.280Z,55.90
2022-09-17T16:53:27.620Z,55.88
2022-09-17T16:55:53.983Z,55.84
2022-09-17T16:58:20.328Z,55.83
2022-09-17T17:00:46.748Z,55.77
2022-09-17T17:03:13.103Z,55.77
2022-09-17T17:05:39.359Z,55.84
2022-09-17T17:10:50.985Z,55.77
2022-09-17T17:13:17.330Z,55.79
2022-09-17T17:15:43.722Z,55.79
2022-09-17T17:18:10.028Z,55.75
2022-09-17T17:20:36.409Z,55.80
2022-09-17T17:23:02.742Z,55.79
2022-09-17T17:25:29.048Z,55.76
2022-09-17T17:27:55.402Z,55.77
2022-09-17T17:30:21.750Z,55.77
2022-09-17T17:32:48.100Z,55.83
2022-09-17T17:35:14.449Z,55.83
2022-09-17T17:37:40.793Z,55.82
2022-09-17T17:40:07.227Z,55.83
2022-09-17T17:42:33.498Z,55.83
2022-09-17T17:44:59.841Z,55.78
2022-09-17T17:47:26.186Z,55.77
2022-09-17T17:49:52.541Z,55.81
2022-09-17T17:52:18.874Z,55.80
2022-09-17T17:54:45.255Z,55.72
2022-09-17T17:57:11.593Z,55.73
2022-09-17T17:59:37.942Z,55.72
2022-09-17T18:02:04.447Z,55.74
2022-09-17T18:04:30.630Z,55.72
2022-09-17T18:06:56.968Z,55.68
2022-09-17T18:09:23.333Z,55.68
2022-09-17T18:11:49.672Z,55.61
2022-09-17T18:14:16.028Z,55.62
2022-09-17T18:16:42.370Z,55.57
2022-09-17T18:19:08.717Z,55.57
2022-09-17T18:21:35.053Z,55.52
2022-09-17T18:24:01.390Z,55.59
2022-09-17T18:26:27.794Z,55.59
2022-09-17T18:28:54.132Z,55.54
2022-09-17T18:31:20.520Z,55.52
2022-09-17T18:33:46.823Z,55.51
2022-09-17T18:36:13.184Z,55.52
2022-09-17T18:38:39.572Z,55.55
2022-09-17T18:41:05.885Z,55.56
2022-09-17T18:43:32.231Z,55.53
2022-09-17T18:45:58.563Z,55.50
2022-09-17T18:48:24.929Z,55.50
2022-09-17T18:50:52.475Z,55.55
2022-09-17T18:53:17.644Z,55.46
2022-09-17T18:55:43.982Z,55.58
2022-09-17T18:58:10.330Z,55.49
2022-09-17T19:00:36.719Z,55.52
2022-09-17T19:03:05.885Z,55.55
2022-09-17T19:05:32.225Z,55.49
2022-09-17T19:07:58.574Z,55.53
2022-09-17T19:10:24.921Z,55.61
2022-09-17T19:12:51.268Z,55.46
2022-09-17T19:15:17.598Z,55.63
2022-09-17T19:17:43.980Z,55.50
2022-09-17T19:20:10.345Z,55.56
2022-09-17T19:22:36.696Z,55.51
2022-09-17T19:25:03.037Z,55.55
2022-09-17T19:27:29.394Z,55.55
2022-09-17T19:29:55.736Z,55.46
2022-09-17T19:32:22.087Z,55.43
2022-09-17T19:34:48.437Z,55.50
2022-09-17T19:37:14.782Z,55.51
2022-09-17T19:39:41.147Z,55.39
2022-09-17T19:42:07.489Z,55.46
2022-09-17T19:44:33.868Z,55.44
2022-09-17T19:47:00.204Z,55.47
2022-09-17T19:49:26.553Z,55.46
2022-09-17T19:51:52.906Z,55.40
2022-09-17T19:54:19.249Z,55.43
2022-09-17T19:56:45.698Z,55.50
2022-09-17T19:59:12.078Z,55.46
2022-09-17T20:01:38.468Z,55.41
2022-09-17T20:04:04.775Z,55.42
2022-09-17T20:06:31.119Z,55.44
2022-09-17T20:08:57.465Z,55.40
2022-09-17T20:11:23.801Z,55.42
2022-09-17T20:13:50.140Z,55.47
2022-09-17T20:16:16.507Z,55.42
2022-09-17T20:18:42.820Z,55.39
2022-09-17T20:21:09.166Z,55.35
2022-09-17T20:23:35.516Z,55.37
2022-09-17T20:26:01.854Z,55.36
2022-09-17T20:28:28.194Z,55.43
2022-09-17T20:30:54.588Z,55.30
2022-09-17T20:33:24.095Z,55.33
2022-09-17T20:35:47.261Z,55.38
2022-09-17T20:40:39.940Z,55.25
2022-09-17T20:43:06.290Z,55.29
2022-09-17T20:45:32.633Z,55.30
2022-09-17T20:47:58.973Z,55.31
2022-09-17T20:50:25.310Z,55.26
2022-09-17T20:52:51.653Z,55.26
2022-09-17T20:55:17.999Z,55.26
2022-09-17T20:57:44.347Z,55.26
2022-09-17T21:00:10.690Z,55.19
2022-09-17T21:02:37.027Z,55.21
2022-09-17T21:05:03.389Z,55.18
2022-09-17T21:07:29.734Z,55.09
2022-09-17T21:09:56.071Z,55.19
2022-09-17T21:12:27.378Z,55.25
2022-09-17T21:14:48.799Z,55.18
2022-09-17T21:17:15.145Z,55.21
2022-09-17T21:19:41.477Z,55.13
2022-09-17T21:22:07.825Z,55.19
2022-09-17T21:24:34.170Z,55.13
2022-09-17T21:27:00.519Z,55.15
2022-09-17T21:29:26.865Z,55.16
2022-09-17T21:31:53.258Z,55.15
2022-09-17T21:34:19.562Z,55.06
2022-09-17T21:36:45.939Z,55.19
2022-09-17T21:39:12.289Z,55.23
2022-09-17T21:41:42.324Z,55.16
2022-09-17T21:44:04.978Z,55.10
2022-09-17T21:46:31.359Z,55.11
2022-09-17T21:48:57.669Z,55.18
2022-09-17T21:51:24.025Z,55.15
2022-09-17T21:53:50.379Z,55.08
2022-09-17T21:56:16.724Z,55.07
2022-09-17T21:58:43.073Z,55.12
2022-09-17T22:01:09.415Z,55.12
2022-09-17T22:03:35.752Z,55.05
2022-09-17T22:06:02.099Z,55.03
2022-09-17T22:08:28.463Z,55.03
2022-09-17T22:10:54.794Z,55.11
2022-09-17T22:13:21.140Z,55.08
2022-09-17T22:15:47.527Z,54.98
2022-09-17T22:18:13.825Z,54.97
2022-09-17T22:20:40.181Z,54.99
2022-09-17T22:23:06.530Z,54.98
2022-09-17T22:25:32.883Z,54.98
2022-09-17T22:28:19.936Z,54.98
2022-09-17T22:30:25.573Z,54.95
2022-09-17T22:32:51.909Z,54.94
2022-09-17T22:35:18.266Z,54.91
2022-09-17T22:37:44.616Z,54.95
2022-09-17T22:40:10.996Z,54.97
2022-09-17T22:42:37.312Z,54.98
2022-09-17T22:45:03.701Z,55.02
2022-09-17T22:47:30.042Z,54.99
2022-09-17T22:49:56.393Z,54.99
2022-09-17T22:52:22.744Z,54.94
2022-09-17T22:54:49.093Z,54.91
2022-09-17T22:57:15.436Z,54.92
2022-09-17T22:59:41.776Z,54.98
2022-09-17T23:02:08.191Z,54.95
2022-09-17T23:04:34.482Z,54.89
2022-09-17T23:07:00.827Z,54.91
2022-09-17T23:09:27.178Z,54.88
2022-09-17T23:11:53.531Z,54.91
2022-09-17T23:14:19.877Z,54.87
2022-09-17T23:16:46.221Z,54.84
2022-09-17T23:19:12.560Z,54.83
2022-09-17T23:21:38.913Z,54.80
2022-09-17T23:24:05.288Z,54.84
2022-09-17T23:26:31.623Z,54.81
2022-09-17T23:29:01.237Z,54.81
2022-09-17T23:31:24.372Z,54.78
2022-09-17T23:33:50.704Z,54.79
2022-09-17T23:36:17.033Z,54.80
2022-09-17T23:38:43.373Z,54.73
2022-09-17T23:41:09.719Z,54.80
2022-09-17T23:43:36.057Z,54.72
2022-09-17T23:46:02.418Z,54.77
2022-09-17T23:48:28.744Z,54.81
2022-09-17T23:50:55.085Z,54.79
2022-09-17T23:53:21.432Z,54.81
2022-09-17T23:55:47.773Z,54.74
2022-09-17T23:58:14.119Z,54.72
